• Join FlightAware (Why Join?)
  • Login
  • US Flag 
09:15PM EDT


 

Airport Tracker/Info


-or-


 

Live Flight TrackerFlight Track Log ✈ DAL1981 ✈ 28-Apr-2013 ✈ KALB - KATL

Flight Track Log - Related Links

Times and Time Zones

All times are in EDT time to prevent confusion due to time zone crossing. See the DAL1981 flight status page for this flight to view local times or setup timezone preferences in your user account.

Time Position Orientation Groundspeed Altitude Reporting Facility
EDT Latitude Longitude Course Direction KTS MPH feet Rate Location/Type
06:13AM 42.7653 -73.8061 200° South 160 184 1,100  Level Boston Center
06:14AM 42.8253 -73.8469 333° Northwest 241 277 2,500 1,980 Climbing Boston Center
06:15AM 42.8786 -73.9106 319° Northwest 278 320 5,400 2,880 Climbing Boston Center
06:17AM 42.9358 -73.9942 313° West 277 319 8,900 2,520 Climbing Boston Center
06:18AM 42.3581 -74.3466 200° South  Level Estimated
06:18AM 42.9408 -74.0908 274° West 248 285 11,000  Level Boston Center
06:19AM 42.9472 -74.2100 274° West 283 326 13,000 1,380 Climbing Boston Center
06:20AM 42.8897 -74.2933 227° Southwest 295 339 13,800 1,500 Climbing Boston Center
06:21AM 42.7986 -74.3756 214° Southwest 326 375 16,000 1,680 Climbing Boston Center
06:22AM 42.7044 -74.4008 191° South 377 434 17,200 1,260 Climbing Boston Center
06:23AM 42.5869 -74.3239 154° Southeast 372 428 18,600 1,560 Climbing Boston Center
06:24AM 42.4842 -74.2392 149° Southeast 391 450 20,400 1,680 Climbing Boston Center
06:25AM 42.3750 -74.1489 149° Southeast 430 495 22,000 1,500 Climbing Boston Center
06:26AM 42.2617 -74.0617 150° Southeast 454 522 23,400 1,440 Climbing Boston Center
06:27AM 42.1286 -74.0414 174° South 465 535 24,900 780 Climbing Boston Center
06:28AM 41.9997 -74.0186 173° South 470 541 25,000  Climbing Boston Center
06:29AM 41.8778 -73.9431 155° Southeast 470 541 25,000  Level Boston Center
06:30AM 41.7894 -73.8350 138° Southeast 465 535 25,000 780 Level Boston Center
06:31AM 41.5589 -73.7597 166° South 437 503 27,300 1,260 Climbing New York Center
06:32AM 41.4747 -73.8778 226° Southwest 389 448 28,700 1,380 Climbing New York Center
06:33AM 41.3903 -73.9983 227° Southwest 411 473 30,000 1,320 Climbing New York Center
06:34AM 41.3103 -74.1103 226° Southwest 423 487 31,300 960 Climbing New York Center
06:35AM 41.2217 -74.2192 223° Southwest 428 493 32,000 300 Climbing New York Center
06:36AM 41.1411 -74.3333 227° Southwest 433 498 32,000  Level New York Center
06:37AM 41.0564 -74.4500 226° Southwest 433 498 32,000  Level New York Center
06:38AM 40.9717 -74.5636 225° Southwest 433 498 32,000  Level New York Center
06:39AM 40.8889 -74.6742 225° Southwest 433 498 32,000  Level New York Center
06:40AM 40.8058 -74.7872 226° Southwest 438 504 32,000  Level New York Center
06:41AM 40.7228 -74.8975 225° Southwest 438 504 32,000 -300 Level New York Center
06:42AM 40.6397 -75.0072 225° Southwest 438 504 31,500 -960 Descending New York Center
06:43AM 40.5586 -75.1197 227° Southwest 438 504 30,100 -780 Descending New York Center
06:44AM 40.4753 -75.2292 225° Southwest 438 504 30,000 -60 Descending New York Center
06:45AM 40.3983 -75.3331 226° Southwest 438 504 30,000  Level New York Center
06:46AM 40.3147 -75.4447 226° Southwest 438 504 30,000  Level New York Center
06:47AM 40.2331 -75.5589 227° Southwest 438 504 30,000  Level New York Center
06:48AM 40.1656 -75.6819 234° Southwest 438 504 30,000  Level New York Center
06:49AM 40.1019 -75.8075 237° Southwest 428 493 30,000  Level New York Center
06:50AM 40.0381 -75.9358 237° Southwest 428 493 30,000 -300 Level New York Center
06:51AM 39.9717 -76.0664 236° Southwest 423 487 29,500 -1,020 Descending New York Center
06:52AM 39.9036 -76.1883 234° Southwest 423 487 28,000 -780 Descending New York Center
06:53AM 39.8164 -76.3169 229° Southwest 428 493 28,000  Level New York Center
06:55AM 39.7336 -76.4494 231° Southwest 419 482 28,000  Level Washington Center
06:55AM 39.6492 -76.5644 226° Southwest 430 495 28,000  Level Washington Center
06:57AM 39.5692 -76.6819 229° Southwest 437 503 28,000  Level Washington Center
06:57AM 39.4908 -76.8017 230° Southwest 437 503 28,000  Level Washington Center
06:59AM 39.4147 -76.9186 230° Southwest 437 503 28,000  Level Washington Center
07:00AM 39.3361 -77.0353 229° Southwest 437 503 28,000  Level Washington Center
07:01AM 39.2556 -77.1542 229° Southwest 437 503 28,000  Level Washington Center
07:02AM 39.1769 -77.2703 229° Southwest 437 503 28,000  Level Washington Center
07:03AM 39.1003 -77.3836 229° Southwest 437 503 28,000  Level Washington Center
07:04AM 39.0297 -77.4861 228° Southwest 437 503 28,000  Level Washington Center
07:05AM 38.9444 -77.6119 229° Southwest 431 496 28,000  Level Washington Center
07:06AM 38.8739 -77.7167 229° Southwest 426 490 28,000  Level Washington Center
07:07AM 38.7861 -77.8447 229° Southwest 432 497 28,000  Level Washington Center
07:08AM 38.7067 -77.9567 228° Southwest 432 497 28,000  Level Washington Center
07:09AM 38.6272 -78.0711 228° Southwest 432 497 28,000  Level Washington Center
07:10AM 38.5497 -78.1853 229° Southwest 432 497 28,000  Level Washington Center
07:11AM 38.4703 -78.2967 228° Southwest 432 497 28,000  Level Washington Center
07:12AM 38.3947 -78.4078 229° Southwest 427 491 28,000  Level Washington Center
07:12AM 38.3169 -78.5214 229° Southwest 427 491 28,000  Level Washington Center
07:14AM 38.2411 -78.6319 229° Southwest 422 486 28,000  Level Washington Center
07:15AM 38.1631 -78.7450 229° Southwest 422 486 28,000  Level Washington Center
07:16AM 38.0853 -78.8525 227° Southwest 427 491 28,000  Level Washington Center
07:17AM 38.0156 -78.9522 228° Southwest 427 491 28,000  Level Washington Center
07:18AM 37.9375 -79.0619 228° Southwest 427 491 28,000  Level Washington Center
07:19AM 37.8569 -79.1714 227° Southwest 427 491 28,000  Level Washington Center
07:20AM 37.7700 -79.2908 227° Southwest 427 491 28,000  Level Washington Center
07:20AM 37.6917 -79.3972 227° Southwest 427 491 28,000  Level Washington Center
07:21AM 37.6131 -79.5061 228° Southwest 432 497 28,000 240 Level Washington Center
07:23AM 37.5364 -79.6147 228° Southwest 427 491 28,600 960 Climbing Washington Center
07:24AM 37.4578 -79.7203 227° Southwest 421 484 30,000 660 Climbing Washington Center
07:25AM 37.3808 -79.8286 228° Southwest 429 494 30,000  Level Washington Center
07:26AM 37.3019 -79.9339 227° Southwest 422 486 30,000  Level Washington Center
07:27AM 37.2253 -80.0392 228° Southwest 422 486 30,000  Level Washington Center
07:28AM 37.1483 -80.1414 227° Southwest 417 480 30,000  Level Washington Center
07:28AM 37.1233 -80.1733 226° Southwest 415 478 30,000  Level Atlanta Center
07:29AM 37.0453 -80.2786 227° Southwest 415 478 30,000  Level Atlanta Center
07:30AM 36.9672 -80.3836 227° Southwest 420 483 30,000  Level Atlanta Center
07:31AM 36.8911 -80.4858 227° Southwest 415 478 30,000  Level Atlanta Center
07:32AM 36.8228 -80.5769 227° Southwest 410 472 30,000  Level Atlanta Center
07:33AM 36.7361 -80.6894 226° Southwest 404 465 30,000  Level Atlanta Center
07:34AM 36.6558 -80.7964 227° Southwest 411 473 30,000  Level Atlanta Center
07:35AM 36.5769 -80.9006 227° Southwest 411 473 30,000  Level Atlanta Center
07:36AM 36.4983 -81.0042 227° Southwest 411 473 30,000  Level Atlanta Center
07:37AM 36.4194 -81.1078 227° Southwest 411 473 30,000  Level Atlanta Center
07:38AM 36.3408 -81.2139 227° Southwest 411 473 30,000  Level Atlanta Center
07:39AM 36.2597 -81.3197 226° Southwest 411 473 30,000  Level Atlanta Center
07:40AM 36.1806 -81.4225 226° Southwest 410 472 30,000  Level Atlanta Center
07:41AM 36.0994 -81.5281 226° Southwest 410 472 30,000  Level Atlanta Center
07:42AM 36.0283 -81.6228 227° Southwest 417 480 30,000  Level Atlanta Center
07:43AM 35.9489 -81.7250 226° Southwest 417 480 30,000  Level Atlanta Center
07:44AM 35.8675 -81.8325 227° Southwest 417 480 30,000  Level Atlanta Center
07:45AM 35.7858 -81.9369 226° Southwest 422 486 30,000  Level Atlanta Center
07:46AM 35.7061 -82.0364 225° Southwest 417 480 30,000  Level Atlanta Center
07:47AM 35.6264 -82.1406 227° Southwest 417 480 30,000  Level Atlanta Center
07:48AM 35.5467 -82.2444 227° Southwest 417 480 30,000 -60 Level Atlanta Center
07:49AM 35.4625 -82.3483 225° Southwest 417 480 29,900 -720 Descending Atlanta Center
07:50AM 35.3783 -82.4442 223° Southwest 417 480 28,600 -1,020 Descending Atlanta Center
07:51AM 35.2897 -82.5400 221° Southwest 425 489 27,900 -780 Descending Atlanta Center
07:52AM 35.2075 -82.6331 223° Southwest 420 483 27,100 -1,080 Descending Atlanta Center
07:53AM 35.1269 -82.7258 223° Southwest 409 471 25,800 -1,320 Descending Atlanta Center
07:54AM 35.0486 -82.8108 222° Southwest 402 463 24,500 -1,200 Descending Atlanta Center
07:55AM 34.9597 -82.9008 220° Southwest 390 449 23,500 -900 Descending Atlanta Center
07:56AM 34.8936 -82.9778 224° Southwest 379 436 22,700 -1,020 Descending Atlanta Center
07:57AM 34.8150 -83.0622 221° Southwest 379 436 21,500 -1,080 Descending Atlanta Center
07:58AM 34.7364 -83.1414 220° Southwest 379 436 20,600 -960 Descending Atlanta Center
07:59AM 34.6597 -83.2231 221° Southwest 374 430 19,600 -1,020 Descending Atlanta Center
08:00AM 34.5914 -83.3069 225° Southwest 367 422 18,600 -1,080 Descending Atlanta Center
08:01AM 34.5083 -83.3933 221° Southwest 367 422 17,500 -1,380 Descending Atlanta Center
08:02AM 34.4317 -83.4797 223° Southwest 367 422 15,900 -1,680 Descending Atlanta Center
08:03AM 34.3569 -83.5581 221° Southwest 367 422 14,200 -900 Descending Atlanta Center
08:04AM 34.2842 -83.6392 223° Southwest 367 422 14,200  Level Atlanta Center
08:05AM 34.2072 -83.7197 221° Southwest 362 417 14,200  Level Atlanta Center
08:06AM 34.1322 -83.8003 222° Southwest 362 417 14,200 -240 Level Atlanta Center
08:07AM 34.0572 -83.8808 222° Southwest 362 417 13,800 -1,380 Descending Atlanta Center
08:07AM 34.0000 -83.9333 217° Southwest 357 411 11,900 -1,620 Descending Atlanta TRACON
08:08AM 33.9333 -84.0167 226° Southwest 349 402 11,100 -480 Descending Atlanta TRACON
08:10AM 33.8500 -84.1000 220° Southwest 347 399 11,000 -60 Descending Atlanta TRACON
08:11AM 33.7833 -84.1500 212° Southwest 296 341 11,000  Level Atlanta TRACON
08:11AM 33.7333 -84.2000 220° Southwest 273 314 11,000  Level Atlanta TRACON
08:13AM 33.7333 -84.3000 270° West 266 306 11,000 -300 Level Atlanta TRACON
08:13AM 33.7333 -84.3833 270° West 270 311 10,500 -1,020 Descending Atlanta TRACON
08:14AM 33.7333 -84.4667 270° West 258 297 9,100 -1,500 Descending Atlanta TRACON
08:16AM 33.7333 -84.5500 270° West 247 284 7,400 -1,560 Descending Atlanta TRACON
08:16AM 33.7333 -84.6333 270° West 245 282 6,000 -1,200 Descending Atlanta TRACON
08:18AM 33.7333 -84.7167 270° West 222 255 5,000 -480 Descending Atlanta TRACON
08:19AM 33.7333 -84.7833 270° West 198 228 5,000  Level Atlanta TRACON
08:19AM 33.7333 -84.8333 270° West 192 221 5,000  Level Atlanta TRACON
08:21AM 33.6667 -84.8500 192° South 204 235 5,000  Level Atlanta TRACON
08:22AM 33.6500 -84.8000 112° Southeast 249 287 5,000  Level Atlanta TRACON
08:22AM 33.6500 -84.7167 90° East 220 253 5,000 -240 Level Atlanta TRACON
08:23AM 33.6500 -84.6500 90° East 221 254 4,600 -420 Descending Atlanta TRACON